sensor_id;sensor_type;location;lat;lon;timestamp;pressure;altitude;pressure_sealevel;temperature;humidity
11621;BME280;5866;49.094;11.900;2023-04-28T00:02:27;96185.88;;;11.11;72.66
11621;BME280;5866;49.094;11.900;2023-04-28T00:04:56;96191.72;;;11.23;72.42
11621;BME280;5866;49.094;11.900;2023-04-28T00:07:24;96191.88;;;11.37;71.09
11621;BME280;5866;49.094;11.900;2023-04-28T00:09:52;96188.91;;;11.08;72.41
11621;BME280;5866;49.094;11.900;2023-04-28T00:12:19;96193.84;;;11.11;72.96
11621;BME280;5866;49.094;11.900;2023-04-28T00:14:47;96185.19;;;11.33;71.01
11621;BME280;5866;49.094;11.900;2023-04-28T00:17:14;96182.56;;;11.41;70.61
11621;BME280;5866;49.094;11.900;2023-04-28T00:19:42;96189.66;;;11.57;69.21
11621;BME280;5866;49.094;11.900;2023-04-28T00:22:11;96182.19;;;11.60;69.04
11621;BME280;5866;49.094;11.900;2023-04-28T00:24:40;96183.88;;;11.53;69.04
11621;BME280;5866;49.094;11.900;2023-04-28T00:27:08;96180.72;;;11.42;70.04
11621;BME280;5866;49.094;11.900;2023-04-28T00:29:35;96169.78;;;11.12;72.11
11621;BME280;5866;49.094;11.900;2023-04-28T00:32:03;96176.94;;;11.20;71.83
11621;BME280;5866;49.094;11.900;2023-04-28T00:34:31;96168.97;;;11.28;71.69
11621;BME280;5866;49.094;11.900;2023-04-28T00:36:59;96171.44;;;11.22;72.01
11621;BME280;5866;49.094;11.900;2023-04-28T00:39:28;96175.25;;;11.19;72.07
11621;BME280;5866;49.094;11.900;2023-04-28T00:41:55;96171.94;;;11.17;72.21
11621;BME280;5866;49.094;11.900;2023-04-28T00:44:23;96178.91;;;11.02;72.98
11621;BME280;5866;49.094;11.900;2023-04-28T00:46:50;96172.59;;;11.19;72.19
11621;BME280;5866;49.094;11.900;2023-04-28T00:49:18;96179.59;;;11.28;71.45
11621;BME280;5866;49.094;11.900;2023-04-28T00:51:46;96179.25;;;11.23;71.54
11621;BME280;5866;49.094;11.900;2023-04-28T00:54:13;96172.63;;;11.35;70.95
11621;BME280;5866;49.094;11.900;2023-04-28T00:56:43;96168.63;;;11.39;70.62
11621;BME280;5866;49.094;11.900;2023-04-28T00:59:10;96161.28;;;11.49;69.96
11621;BME280;5866;49.094;11.900;2023-04-28T01:01:38;96151.63;;;11.56;69.18
11621;BME280;5866;49.094;11.900;2023-04-28T01:04:06;96164.78;;;11.50;69.32
11621;BME280;5866;49.094;11.900;2023-04-28T01:06:34;96160.84;;;11.22;70.75
11621;BME280;5866;49.094;11.900;2023-04-28T01:09:03;96152.69;;;11.15;71.55
11621;BME280;5866;49.094;11.900;2023-04-28T01:11:31;96147.38;;;11.39;70.66
11621;BME280;5866;49.094;11.900;2023-04-28T01:14:00;96155.47;;;11.46;70.46
11621;BME280;5866;49.094;11.900;2023-04-28T01:16:27;96146.03;;;11.51;69.56
11621;BME280;5866;49.094;11.900;2023-04-28T01:18:59;96150.31;;;11.52;69.34
11621;BME280;5866;49.094;11.900;2023-04-28T01:21:26;96147.00;;;11.50;68.73
11621;BME280;5866;49.094;11.900;2023-04-28T01:23:57;96147.19;;;11.49;69.14
11621;BME280;5866;49.094;11.900;2023-04-28T01:26:24;96148.38;;;11.30;69.59
11621;BME280;5866;49.094;11.900;2023-04-28T01:28:52;96153.03;;;11.28;70.26
11621;BME280;5866;49.094;11.900;2023-04-28T01:31:20;96141.56;;;11.36;69.63
11621;BME280;5866;49.094;11.900;2023-04-28T01:33:47;96144.53;;;11.49;69.12
11621;BME280;5866;49.094;11.900;2023-04-28T01:36:15;96141.38;;;11.45;69.19
11621;BME280;5866;49.094;11.900;2023-04-28T01:38:42;96137.03;;;11.60;68.79
11621;BME280;5866;49.094;11.900;2023-04-28T01:41:11;96135.84;;;11.63;69.07
11621;BME280;5866;49.094;11.900;2023-04-28T01:43:38;96128.56;;;11.57;69.67
11621;BME280;5866;49.094;11.900;2023-04-28T01:46:06;96137.91;;;11.45;70.92
11621;BME280;5866;49.094;11.900;2023-04-28T01:48:33;96140.06;;;11.33;72.07
11621;BME280;5866;49.094;11.900;2023-04-28T01:51:01;96137.06;;;11.36;72.61
11621;BME280;5866;49.094;11.900;2023-04-28T01:53:28;96139.00;;;11.58;71.27
11621;BME280;5866;49.094;11.900;2023-04-28T01:55:56;96138.34;;;11.56;70.59
11621;BME280;5866;49.094;11.900;2023-04-28T01:58:25;96144.72;;;11.39;71.85
11621;BME280;5866;49.094;11.900;2023-04-28T02:00:53;96137.38;;;11.49;70.83
11621;BME280;5866;49.094;11.900;2023-04-28T02:03:20;96143.38;;;11.27;71.58
11621;BME280;5866;49.094;11.900;2023-04-28T02:05:48;96132.09;;;11.33;71.42
11621;BME280;5866;49.094;11.900;2023-04-28T02:08:16;96131.09;;;11.34;71.83
11621;BME280;5866;49.094;11.900;2023-04-28T02:10:43;96127.66;;;11.09;73.31
11621;BME280;5866;49.094;11.900;2023-04-28T02:13:11;96112.56;;;11.10;73.32
11621;BME280;5866;49.094;11.900;2023-04-28T02:15:40;96114.72;;;10.98;74.91
11621;BME280;5866;49.094;11.900;2023-04-28T02:18:08;96112.75;;;11.00;75.40
11621;BME280;5866;49.094;11.900;2023-04-28T02:20:36;96118.41;;;10.97;75.46
11621;BME280;5866;49.094;11.900;2023-04-28T02:23:03;96116.50;;;11.30;73.49
11621;BME280;5866;49.094;11.900;2023-04-28T02:25:31;96119.56;;;10.95;74.13
11621;BME280;5866;49.094;11.900;2023-04-28T02:27:58;96125.84;;;10.94;75.20
11621;BME280;5866;49.094;11.900;2023-04-28T02:30:26;96116.25;;;10.85;75.51
11621;BME280;5866;49.094;11.900;2023-04-28T02:32:55;96115.25;;;10.70;76.03
11621;BME280;5866;49.094;11.900;2023-04-28T02:35:22;96115.91;;;10.80;76.71
11621;BME280;5866;49.094;11.900;2023-04-28T02:37:50;96108.59;;;10.74;77.21
11621;BME280;5866;49.094;11.900;2023-04-28T02:40:18;96111.94;;;10.68;78.54
11621;BME280;5866;49.094;11.900;2023-04-28T02:42:45;96105.63;;;10.69;78.22
11621;BME280;5866;49.094;11.900;2023-04-28T02:45:13;96117.06;;;10.69;77.28
11621;BME280;5866;49.094;11.900;2023-04-28T02:47:41;96114.06;;;10.96;75.61
11621;BME280;5866;49.094;11.900;2023-04-28T02:50:10;96114.75;;;10.74;76.14
11621;BME280;5866;49.094;11.900;2023-04-28T02:52:37;96110.41;;;10.89;75.26
11621;BME280;5866;49.094;11.900;2023-04-28T02:55:05;96107.28;;;10.78;76.35
11621;BME280;5866;49.094;11.900;2023-04-28T02:57:33;96113.41;;;10.86;76.44
11621;BME280;5866;49.094;11.900;2023-04-28T03:00:00;96112.09;;;10.74;76.80
11621;BME280;5866;49.094;11.900;2023-04-28T03:02:28;96106.94;;;10.81;76.17
11621;BME280;5866;49.094;11.900;2023-04-28T03:04:56;96103.31;;;10.66;77.02
11621;BME280;5866;49.094;11.900;2023-04-28T03:07:25;96096.81;;;10.52;77.83
11621;BME280;5866;49.094;11.900;2023-04-28T03:09:53;96108.38;;;10.19;79.95
11621;BME280;5866;49.094;11.900;2023-04-28T03:12:20;96093.16;;;10.37;79.08
11621;BME280;5866;49.094;11.900;2023-04-28T03:14:48;96095.13;;;10.27;79.44
11621;BME280;5866;49.094;11.900;2023-04-28T03:17:15;96091.38;;;10.62;78.20
11621;BME280;5866;49.094;11.900;2023-04-28T03:19:43;96100.47;;;10.51;79.66
11621;BME280;5866;49.094;11.900;2023-04-28T03:22:10;96096.81;;;10.36;80.37
11621;BME280;5866;49.094;11.900;2023-04-28T03:24:39;96086.50;;;10.25;79.58
11621;BME280;5866;49.094;11.900;2023-04-28T03:27:07;96085.19;;;10.37;77.48
11621;BME280;5866;49.094;11.900;2023-04-28T03:29:34;96088.19;;;10.66;76.40
11621;BME280;5866;49.094;11.900;2023-04-28T03:32:02;96090.69;;;10.84;75.25
11621;BME280;5866;49.094;11.900;2023-04-28T03:34:29;96080.25;;;10.90;75.41
11621;BME280;5866;49.094;11.900;2023-04-28T03:36:57;96069.66;;;10.74;77.08
11621;BME280;5866;49.094;11.900;2023-04-28T03:39:24;96072.78;;;10.94;75.79
11621;BME280;5866;49.094;11.900;2023-04-28T03:41:53;96071.06;;;11.17;74.19
11621;BME280;5866;49.094;11.900;2023-04-28T03:44:21;96062.47;;;11.07;74.21
11621;BME280;5866;49.094;11.900;2023-04-28T03:46:48;96067.16;;;10.73;76.58
11621;BME280;5866;49.094;11.900;2023-04-28T03:49:16;96064.81;;;10.29;77.60
11621;BME280;5866;49.094;11.900;2023-04-28T03:51:43;96064.81;;;10.13;80.70
11621;BME280;5866;49.094;11.900;2023-04-28T03:54:11;96061.34;;;10.37;80.47
11621;BME280;5866;49.094;11.900;2023-04-28T03:56:39;96055.50;;;10.09;80.36
11621;BME280;5866;49.094;11.900;2023-04-28T03:59:08;96055.78;;;9.90;81.52
11621;BME280;5866;49.094;11.900;2023-04-28T04:01:37;96054.59;;;9.85;82.17
11621;BME280;5866;49.094;11.900;2023-04-28T04:04:04;96052.78;;;9.85;82.12
11621;BME280;5866;49.094;11.900;2023-04-28T04:06:32;96056.56;;;9.83;82.94
11621;BME280;5866;49.094;11.900;2023-04-28T04:09:00;96058.25;;;9.84;82.68
11621;BME280;5866;49.094;11.900;2023-04-28T04:11:28;96060.25;;;9.90;82.22
11621;BME280;5866;49.094;11.900;2023-04-28T04:13:55;96065.97;;;10.27;80.98
11621;BME280;5866;49.094;11.900;2023-04-28T04:16:24;96055.53;;;10.50;79.27
11621;BME280;5866;49.094;11.900;2023-04-28T04:18:52;96049.22;;;10.75;77.08
11621;BME280;5866;49.094;11.900;2023-04-28T04:21:19;96045.59;;;10.44;77.64
11621;BME280;5866;49.094;11.900;2023-04-28T04:23:47;96053.59;;;10.60;78.23
11621;BME280;5866;49.094;11.900;2023-04-28T04:26:14;96044.41;;;10.94;75.99
11621;BME280;5866;49.094;11.900;2023-04-28T04:28:42;96058.53;;;10.87;75.81
11621;BME280;5866;49.094;11.900;2023-04-28T04:31:09;96051.22;;;10.89;76.16
11621;BME280;5866;49.094;11.900;2023-04-28T04:33:39;96047.09;;;10.70;76.41
11621;BME280;5866;49.094;11.900;2023-04-28T04:36:06;96037.13;;;10.64;76.86
11621;BME280;5866;49.094;11.900;2023-04-28T04:38:34;96034.84;;;10.53;77.14
11621;BME280;5866;49.094;11.900;2023-04-28T04:41:01;96028.53;;;10.62;77.58
11621;BME280;5866;49.094;11.900;2023-04-28T04:43:29;96034.84;;;10.61;76.91
11621;BME280;5866;49.094;11.900;2023-04-28T04:45:56;96038.63;;;10.75;76.36
11621;BME280;5866;49.094;11.900;2023-04-28T04:48:24;96035.16;;;10.74;76.46
11621;BME280;5866;49.094;11.900;2023-04-28T04:50:53;96034.63;;;10.95;74.23
11621;BME280;5866;49.094;11.900;2023-04-28T04:53:20;96024.03;;;10.87;74.37
11621;BME280;5866;49.094;11.900;2023-04-28T04:55:48;96028.72;;;10.53;75.66
11621;BME280;5866;49.094;11.900;2023-04-28T04:58:16;96024.88;;;10.31;78.14
11621;BME280;5866;49.094;11.900;2023-04-28T05:00:43;96012.16;;;10.43;79.04
11621;BME280;5866;49.094;11.900;2023-04-28T05:03:11;96007.66;;;10.51;79.53
11621;BME280;5866;49.094;11.900;2023-04-28T05:05:38;96016.44;;;10.68;78.87
11621;BME280;5866;49.094;11.900;2023-04-28T05:08:08;96015.09;;;10.80;75.63
11621;BME280;5866;49.094;11.900;2023-04-28T05:10:35;96020.72;;;10.93;75.62
11621;BME280;5866;49.094;11.900;2023-04-28T05:13:03;96022.06;;;11.36;73.21
11621;BME280;5866;49.094;11.900;2023-04-28T05:15:30;96029.50;;;11.40;71.57
11621;BME280;5866;49.094;11.900;2023-04-28T05:17:58;96027.63;;;11.10;72.26
11621;BME280;5866;49.094;11.900;2023-04-28T05:20:26;96027.81;;;11.00;72.52
11621;BME280;5866;49.094;11.900;2023-04-28T05:22:53;96023.69;;;10.82;75.13
11621;BME280;5866;49.094;11.900;2023-04-28T05:25:22;96022.56;;;10.60;76.13
11621;BME280;5866;49.094;11.900;2023-04-28T05:27:50;96017.09;;;10.46;76.65
11621;BME280;5866;49.094;11.900;2023-04-28T05:30:17;96012.94;;;10.43;76.97
11621;BME280;5866;49.094;11.900;2023-04-28T05:32:45;96021.22;;;10.64;76.94
11621;BME280;5866;49.094;11.900;2023-04-28T05:35:12;96013.28;;;10.56;76.20
11621;BME280;5866;49.094;11.900;2023-04-28T05:37:40;96025.38;;;10.83;77.47
11621;BME280;5866;49.094;11.900;2023-04-28T05:40:09;96035.06;;;11.23;76.56
11621;BME280;5866;49.094;11.900;2023-04-28T05:42:38;96045.19;;;11.66;71.90
11621;BME280;5866;49.094;11.900;2023-04-28T05:45:07;96039.81;;;11.43;71.17
11621;BME280;5866;49.094;11.900;2023-04-28T05:47:34;96037.53;;;11.24;71.82
11621;BME280;5866;49.094;11.900;2023-04-28T05:50:02;96042.56;;;11.11;73.16
11621;BME280;5866;49.094;11.900;2023-04-28T05:52:30;96035.59;;;11.02;74.60
11621;BME280;5866;49.094;11.900;2023-04-28T05:54:57;96033.47;;;10.89;76.04
11621;BME280;5866;49.094;11.900;2023-04-28T05:57:25;96033.31;;;10.91;77.21
11621;BME280;5866;49.094;11.900;2023-04-28T05:59:53;96032.28;;;11.00;77.14
11621;BME280;5866;49.094;11.900;2023-04-28T06:02:21;96029.47;;;11.01;74.91
11621;BME280;5866;49.094;11.900;2023-04-28T06:04:50;96026.97;;;11.08;74.55
11621;BME280;5866;49.094;11.900;2023-04-28T06:07:18;96026.75;;;11.26;73.84
11621;BME280;5866;49.094;11.900;2023-04-28T06:09:46;96015.72;;;11.45;71.80
11621;BME280;5866;49.094;11.900;2023-04-28T06:12:15;96011.06;;;11.47;70.55
11621;BME280;5866;49.094;11.900;2023-04-28T06:14:42;96010.84;;;11.56;71.83
11621;BME280;5866;49.094;11.900;2023-04-28T06:17:11;96005.94;;;11.45;71.10
11621;BME280;5866;49.094;11.900;2023-04-28T06:19:38;96001.47;;;11.38;72.12
11621;BME280;5866;49.094;11.900;2023-04-28T06:22:06;95993.75;;;11.20;73.81
11621;BME280;5866;49.094;11.900;2023-04-28T06:24:33;96000.09;;;11.03;74.07
11621;BME280;5866;49.094;11.900;2023-04-28T06:27:01;95989.56;;;11.26;74.61
11621;BME280;5866;49.094;11.900;2023-04-28T06:29:28;95996.94;;;11.07;75.54
11621;BME280;5866;49.094;11.900;2023-04-28T06:31:56;95995.13;;;11.08;74.91
11621;BME280;5866;49.094;11.900;2023-04-28T06:34:25;96006.72;;;11.07;74.34
11621;BME280;5866;49.094;11.900;2023-04-28T06:36:54;96008.41;;;11.00;75.30
11621;BME280;5866;49.094;11.900;2023-04-28T06:39:21;96006.84;;;11.22;75.05
11621;BME280;5866;49.094;11.900;2023-04-28T06:41:49;96015.28;;;11.25;74.10
11621;BME280;5866;49.094;11.900;2023-04-28T06:44:16;96019.91;;;11.31;74.06
11621;BME280;5866;49.094;11.900;2023-04-28T06:46:44;96028.63;;;11.09;75.69
11621;BME280;5866;49.094;11.900;2023-04-28T06:49:12;96042.97;;;11.39;76.04
11621;BME280;5866;49.094;11.900;2023-04-28T06:51:41;96046.31;;;11.79;73.46
11621;BME280;5866;49.094;11.900;2023-04-28T06:54:08;96048.94;;;11.87;73.90
11621;BME280;5866;49.094;11.900;2023-04-28T06:56:36;96060.88;;;11.91;74.56
11621;BME280;5866;49.094;11.900;2023-04-28T06:59:04;96054.22;;;11.95;76.75
11621;BME280;5866;49.094;11.900;2023-04-28T07:01:32;96051.91;;;12.15;76.67
11621;BME280;5866;49.094;11.900;2023-04-28T07:03:59;96053.53;;;11.55;83.61
11621;BME280;5866;49.094;11.900;2023-04-28T07:06:27;96051.31;;;11.28;85.88
11621;BME280;5866;49.094;11.900;2023-04-28T07:08:58;96046.47;;;11.31;85.36
11621;BME280;5866;49.094;11.900;2023-04-28T07:11:25;96047.50;;;11.22;85.45
11621;BME280;5866;49.094;11.900;2023-04-28T07:13:53;96038.91;;;11.04;91.39
11621;BME280;5866;49.094;11.900;2023-04-28T07:16:20;96038.28;;;10.94;92.32
11621;BME280;5866;49.094;11.900;2023-04-28T07:18:48;96037.13;;;10.88;96.28
11621;BME280;5866;49.094;11.900;2023-04-28T07:21:16;96042.88;;;11.16;98.32
11621;BME280;5866;49.094;11.900;2023-04-28T07:23:43;96041.03;;;11.25;98.80
11621;BME280;5866;49.094;11.900;2023-04-28T07:26:12;96050.16;;;11.22;98.66
11621;BME280;5866;49.094;11.900;2023-04-28T07:28:42;96040.25;;;11.08;100.00
11621;BME280;5866;49.094;11.900;2023-04-28T07:31:10;96036.28;;;10.96;100.00
11621;BME280;5866;49.094;11.900;2023-04-28T07:33:37;96035.13;;;10.98;100.00
11621;BME280;5866;49.094;11.900;2023-04-28T07:36:06;96030.63;;;10.99;100.00
11621;BME280;5866;49.094;11.900;2023-04-28T07:38:33;96024.03;;;10.95;100.00
11621;BME280;5866;49.094;11.900;2023-04-28T07:41:02;96026.97;;;11.00;100.00
11621;BME280;5866;49.094;11.900;2023-04-28T07:43:34;96031.69;;;10.66;100.00
11621;BME280;5866;49.094;11.900;2023-04-28T07:46:01;96032.03;;;10.38;100.00
11621;BME280;5866;49.094;11.900;2023-04-28T07:48:29;96033.34;;;10.43;100.00
11621;BME280;5866;49.094;11.900;2023-04-28T07:50:57;96032.34;;;10.68;100.00
11621;BME280;5866;49.094;11.900;2023-04-28T07:53:25;96024.22;;;10.37;100.00
11621;BME280;5866;49.094;11.900;2023-04-28T07:55:53;96029.22;;;10.40;100.00
11621;BME280;5866;49.094;11.900;2023-04-28T07:58:20;96024.22;;;10.37;100.00
11621;BME280;5866;49.094;11.900;2023-04-28T08:00:49;96019.28;;;10.18;100.00
11621;BME280;5866;49.094;11.900;2023-04-28T08:03:17;96019.72;;;10.05;100.00
11621;BME280;5866;49.094;11.900;2023-04-28T08:05:45;96028.03;;;10.10;100.00
11621;BME280;5866;49.094;11.900;2023-04-28T08:08:12;96021.91;;;10.26;100.00
11621;BME280;5866;49.094;11.900;2023-04-28T08:10:40;96020.75;;;10.36;100.00
11621;BME280;5866;49.094;11.900;2023-04-28T08:13:09;96020.56;;;10.54;100.00
11621;BME280;5866;49.094;11.900;2023-04-28T08:15:36;96016.09;;;10.55;100.00
11621;BME280;5866;49.094;11.900;2023-04-28T08:18:06;96024.19;;;10.85;100.00
11621;BME280;5866;49.094;11.900;2023-04-28T08:20:33;96020.06;;;10.75;100.00
11621;BME280;5866;49.094;11.900;2023-04-28T08:23:01;96014.06;;;10.81;100.00
11621;BME280;5866;49.094;11.900;2023-04-28T08:25:28;96006.94;;;10.97;100.00
11621;BME280;5866;49.094;11.900;2023-04-28T08:27:56;96010.97;;;10.61;100.00
11621;BME280;5866;49.094;11.900;2023-04-28T08:30:24;96010.81;;;10.55;100.00
11621;BME280;5866;49.094;11.900;2023-04-28T08:32:51;96017.13;;;10.62;100.00
11621;BME280;5866;49.094;11.900;2023-04-28T08:35:20;96019.06;;;10.52;100.00
11621;BME280;5866;49.094;11.900;2023-04-28T08:37:48;96019.75;;;10.62;100.00
11621;BME280;5866;49.094;11.900;2023-04-28T08:40:16;96013.59;;;10.77;100.00
11621;BME280;5866;49.094;11.900;2023-04-28T08:42:43;96017.56;;;10.73;100.00
11621;BME280;5866;49.094;11.900;2023-04-28T08:45:12;96029.03;;;10.66;100.00
11621;BME280;5866;49.094;11.900;2023-04-28T08:47:41;96031.97;;;10.79;100.00
11621;BME280;5866;49.094;11.900;2023-04-28T08:50:12;96033.75;;;11.10;100.00
11621;BME280;5866;49.094;11.900;2023-04-28T08:52:41;96028.47;;;11.57;100.00
11621;BME280;5866;49.094;11.900;2023-04-28T08:55:11;96023.59;;;11.30;100.00
11621;BME280;5866;49.094;11.900;2023-04-28T08:57:43;96030.28;;;11.02;100.00
11621;BME280;5866;49.094;11.900;2023-04-28T09:00:11;96033.13;;;11.00;100.00
11621;BME280;5866;49.094;11.900;2023-04-28T09:02:39;96034.38;;;11.29;100.00
11621;BME280;5866;49.094;11.900;2023-04-28T09:05:09;96039.69;;;11.20;100.00
11621;BME280;5866;49.094;11.900;2023-04-28T09:07:37;96035.84;;;11.31;100.00
11621;BME280;5866;49.094;11.900;2023-04-28T09:10:24;96041.88;;;11.17;100.00
11621;BME280;5866;49.094;11.900;2023-04-28T09:12:54;96036.78;;;10.99;100.00
11621;BME280;5866;49.094;11.900;2023-04-28T09:15:27;96028.00;;;10.99;100.00
11621;BME280;5866;49.094;11.900;2023-04-28T09:17:59;96024.16;;;10.93;100.00
11621;BME280;5866;49.094;11.900;2023-04-28T09:20:29;96022.31;;;11.02;100.00
11621;BME280;5866;49.094;11.900;2023-04-28T09:23:12;96009.03;;;11.18;100.00
11621;BME280;5866;49.094;11.900;2023-04-28T09:25:54;95999.44;;;11.09;100.00
11621;BME280;5866;49.094;11.900;2023-04-28T09:28:22;95987.47;;;11.13;100.00
11621;BME280;5866;49.094;11.900;2023-04-28T09:30:50;95985.44;;;11.23;100.00
11621;BME280;5866;49.094;11.900;2023-04-28T09:33:17;95983.78;;;11.22;100.00
11621;BME280;5866;49.094;11.900;2023-04-28T09:35:46;95986.75;;;11.66;100.00
11621;BME280;5866;49.094;11.900;2023-04-28T09:38:14;95982.59;;;11.63;100.00
11621;BME280;5866;49.094;11.900;2023-04-28T09:40:51;95974.75;;;11.39;100.00
11621;BME280;5866;49.094;11.900;2023-04-28T09:43:26;95973.81;;;11.24;100.00
11621;BME280;5866;49.094;11.900;2023-04-28T09:45:55;95969.25;;;11.10;100.00
11621;BME280;5866;49.094;11.900;2023-04-28T09:48:31;95973.41;;;10.96;100.00
11621;BME280;5866;49.094;11.900;2023-04-28T09:51:00;95965.13;;;10.91;100.00
11621;BME280;5866;49.094;11.900;2023-04-28T09:53:28;95965.81;;;10.85;100.00
11621;BME280;5866;49.094;11.900;2023-04-28T09:55:59;95962.63;;;10.98;100.00
11621;BME280;5866;49.094;11.900;2023-04-28T09:58:28;95957.28;;;11.14;100.00
11621;BME280;5866;49.094;11.900;2023-04-28T10:00:57;95957.25;;;11.22;100.00
11621;BME280;5866;49.094;11.900;2023-04-28T10:03:26;95966.84;;;11.62;100.00
11621;BME280;5866;49.094;11.900;2023-04-28T10:05:56;95962.38;;;11.62;100.00
11621;BME280;5866;49.094;11.900;2023-04-28T10:08:25;95963.16;;;11.63;100.00
11621;BME280;5866;49.094;11.900;2023-04-28T10:10:54;95960.47;;;12.02;100.00
11621;BME280;5866;49.094;11.900;2023-04-28T10:13:24;95955.88;;;11.95;100.00
11621;BME280;5866;49.094;11.900;2023-04-28T10:15:51;95966.59;;;11.79;100.00
11621;BME280;5866;49.094;11.900;2023-04-28T10:18:21;95955.03;;;11.72;100.00
11621;BME280;5866;49.094;11.900;2023-04-28T10:20:54;95954.19;;;11.41;100.00
11621;BME280;5866;49.094;11.900;2023-04-28T10:24:03;95958.69;;;11.33;100.00
11621;BME280;5866;49.094;11.900;2023-04-28T10:27:06;95958.63;;;11.10;100.00
11621;BME280;5866;49.094;11.900;2023-04-28T10:29:35;95961.56;;;11.15;100.00
11621;BME280;5866;49.094;11.900;2023-04-28T10:32:22;95953.25;;;11.26;100.00
11621;BME280;5866;49.094;11.900;2023-04-28T10:34:52;95948.22;;;11.39;100.00
11621;BME280;5866;49.094;11.900;2023-04-28T10:38:03;95943.59;;;11.25;100.00
11621;BME280;5866;49.094;11.900;2023-04-28T10:40:32;95940.03;;;11.10;100.00
11621;BME280;5866;49.094;11.900;2023-04-28T10:43:00;95932.84;;;11.18;100.00
11621;BME280;5866;49.094;11.900;2023-04-28T10:46:00;95932.38;;;11.15;100.00
11621;BME280;5866;49.094;11.900;2023-04-28T10:49:01;95925.81;;;11.03;100.00
11621;BME280;5866;49.094;11.900;2023-04-28T10:51:29;95930.09;;;11.12;100.00
11621;BME280;5866;49.094;11.900;2023-04-28T10:54:08;95931.06;;;11.42;100.00
11621;BME280;5866;49.094;11.900;2023-04-28T10:56:36;95926.91;;;11.47;100.00
11621;BME280;5866;49.094;11.900;2023-04-28T10:59:25;95920.06;;;11.22;100.00
11621;BME280;5866;49.094;11.900;2023-04-28T11:01:53;95928.78;;;11.08;100.00
11621;BME280;5866;49.094;11.900;2023-04-28T11:04:21;95928.00;;;11.30;100.00
11621;BME280;5866;49.094;11.900;2023-04-28T11:07:07;95921.03;;;11.29;100.00
11621;BME280;5866;49.094;11.900;2023-04-28T11:09:50;95916.09;;;11.49;100.00
11621;BME280;5866;49.094;11.900;2023-04-28T11:12:18;95915.31;;;11.40;100.00
11621;BME280;5866;49.094;11.900;2023-04-28T11:14:45;95909.09;;;11.86;100.00
11621;BME280;5866;49.094;11.900;2023-04-28T11:17:13;95908.22;;;11.63;100.00
11621;BME280;5866;49.094;11.900;2023-04-28T11:19:45;95912.13;;;11.75;100.00
11621;BME280;5866;49.094;11.900;2023-04-28T11:22:18;95906.81;;;11.75;100.00
11621;BME280;5866;49.094;11.900;2023-04-28T11:24:58;95898.44;;;11.86;100.00
11621;BME280;5866;49.094;11.900;2023-04-28T11:27:27;95901.28;;;11.85;100.00
11621;BME280;5866;49.094;11.900;2023-04-28T11:29:55;95908.56;;;11.91;100.00
11621;BME280;5866;49.094;11.900;2023-04-28T11:32:26;95908.44;;;11.84;100.00
11621;BME280;5866;49.094;11.900;2023-04-28T11:34:54;95931.75;;;12.20;100.00
11621;BME280;5866;49.094;11.900;2023-04-28T11:37:22;95914.72;;;12.29;100.00
11621;BME280;5866;49.094;11.900;2023-04-28T11:39:49;95914.50;;;12.82;100.00
11621;BME280;5866;49.094;11.900;2023-04-28T11:42:18;95907.22;;;13.34;100.00
11621;BME280;5866;49.094;11.900;2023-04-28T11:44:49;95898.06;;;12.93;100.00
11621;BME280;5866;49.094;11.900;2023-04-28T11:47:27;95908.59;;;12.43;100.00
11621;BME280;5866;49.094;11.900;2023-04-28T11:49:56;95916.03;;;12.10;100.00
11621;BME280;5866;49.094;11.900;2023-04-28T11:52:24;95902.56;;;12.12;100.00
11621;BME280;5866;49.094;11.900;2023-04-28T11:54:53;95903.63;;;12.25;100.00
11621;BME280;5866;49.094;11.900;2023-04-28T11:57:23;95912.31;;;12.34;100.00
11621;BME280;5866;49.094;11.900;2023-04-28T11:59:51;95912.72;;;12.45;100.00
11621;BME280;5866;49.094;11.900;2023-04-28T12:02:24;95911.47;;;12.85;100.00
11621;BME280;5866;49.094;11.900;2023-04-28T12:04:54;95911.19;;;13.24;100.00
11621;BME280;5866;49.094;11.900;2023-04-28T12:07:22;95908.97;;;13.78;100.00
11621;BME280;5866;49.094;11.900;2023-04-28T12:10:08;95901.09;;;13.70;100.00
11621;BME280;5866;49.094;11.900;2023-04-28T12:12:39;95911.63;;;13.78;100.00
11621;BME280;5866;49.094;11.900;2023-04-28T12:15:18;95905.16;;;14.08;100.00
11621;BME280;5866;49.094;11.900;2023-04-28T12:17:47;95907.47;;;14.32;100.00
11621;BME280;5866;49.094;11.900;2023-04-28T12:20:34;95905.03;;;14.37;100.00
11621;BME280;5866;49.094;11.900;2023-04-28T12:23:03;95911.13;;;14.31;100.00
11621;BME280;5866;49.094;11.900;2023-04-28T12:25:31;95917.31;;;14.31;100.00
11621;BME280;5866;49.094;11.900;2023-04-28T12:28:01;95922.94;;;14.22;100.00
11621;BME280;5866;49.094;11.900;2023-04-28T12:30:31;95914.22;;;14.56;100.00
11621;BME280;5866;49.094;11.900;2023-04-28T12:32:59;95918.81;;;14.41;100.00
11621;BME280;5866;49.094;11.900;2023-04-28T12:35:27;95912.94;;;14.79;100.00
11621;BME280;5866;49.094;11.900;2023-04-28T12:37:56;95925.44;;;14.72;100.00
11621;BME280;5866;49.094;11.900;2023-04-28T12:40:23;95911.53;;;14.83;100.00
11621;BME280;5866;49.094;11.900;2023-04-28T12:42:51;95910.53;;;15.25;100.00
11621;BME280;5866;49.094;11.900;2023-04-28T12:45:20;95902.78;;;15.37;100.00
11621;BME280;5866;49.094;11.900;2023-04-28T12:47:47;95901.81;;;15.03;100.00
11621;BME280;5866;49.094;11.900;2023-04-28T12:50:15;95906.19;;;14.83;100.00
11621;BME280;5866;49.094;11.900;2023-04-28T12:52:42;95903.44;;;14.70;100.00
11621;BME280;5866;49.094;11.900;2023-04-28T12:55:10;95907.28;;;14.61;100.00
11621;BME280;5866;49.094;11.900;2023-04-28T12:57:37;95904.25;;;14.71;100.00
11621;BME280;5866;49.094;11.900;2023-04-28T13:00:06;95903.66;;;14.75;100.00
11621;BME280;5866;49.094;11.900;2023-04-28T13:02:35;95893.03;;;14.82;100.00
11621;BME280;5866;49.094;11.900;2023-04-28T13:05:04;95909.41;;;14.72;100.00
11621;BME280;5866;49.094;11.900;2023-04-28T13:07:32;95899.63;;;14.86;100.00